Time;durP1;ratioP1;P1;durP2;ratioP2;P2;SDS_P1;SDS_P2;PMS_P1;PMS_P2;Temp;Humidity;BMP_temperature;BMP_pressure;BME280_temperature;BME280_humidity;BME280_pressure;Samples;Min_cycle;Max_cycle;Signal;HPM_P1;HPM_P2
2021/09/12 00:01:52;;;;;;;5.43;2.67;;;;;;;6.06;59.93;99649.16;5054775;28;20046;-78
2021/09/12 00:04:18;;;;;;;3.55;2.83;;;;;;;6.00;60.09;99661.91;5038250;28;20052;-78
2021/09/12 00:06:44;;;;;;;6.32;2.35;;;;;;;5.95;60.14;99667.47;5022160;28;20048;-77
2021/09/12 00:09:10;;;;;;;3.88;2.50;;;;;;;5.80;60.62;99657.69;5038359;28;20048;-78
2021/09/12 00:11:36;;;;;;;7.75;2.70;;;;;;;5.74;60.93;99664.16;5022706;28;20067;-79
2021/09/12 00:14:01;;;;;;;2.90;2.60;;;;;;;5.71;61.00;99658.19;5038370;28;20048;-78
2021/09/12 00:16:27;;;;;;;5.68;2.60;;;;;;;5.69;61.61;99660.06;5054861;28;20052;-77
2021/09/12 00:18:53;;;;;;;2.65;2.45;;;;;;;5.66;61.19;99660.22;5038283;28;20079;-77
2021/09/12 00:21:19;;;;;;;5.03;2.60;;;;;;;5.58;61.46;99648.25;5054870;28;20499;-78
2021/09/12 00:23:59;;;;;;;2.90;2.40;;;;;;;5.56;61.64;99643.97;5057204;28;20044;-78
2021/09/12 00:26:25;;;;;;;3.53;2.38;;;;;;;5.55;61.71;99643.09;5054995;28;20075;-79
2021/09/12 00:29:00;;;;;;;3.17;2.33;;;;;;;5.64;61.86;99656.78;5071701;28;20060;-78
2021/09/12 00:31:26;;;;;;;5.47;2.67;;;;;;;5.62;61.97;99659.53;5038165;28;20052;-78
2021/09/12 00:33:52;;;;;;;3.00;2.70;;;;;;;5.53;61.78;99646.81;5055096;28;20403;-77
2021/09/12 00:36:18;;;;;;;3.08;2.75;;;;;;;5.63;62.02;99650.63;5021966;28;20101;-77
2021/09/12 00:38:44;;;;;;;2.67;2.35;;;;;;;5.77;61.67;99679.91;5021680;28;20135;-77
2021/09/12 00:41:10;;;;;;;3.55;2.72;;;;;;;5.84;61.79;99665.38;5038100;28;20127;-77
2021/09/12 00:43:36;;;;;;;4.53;2.97;;;;;;;5.86;61.66;99665.28;5037886;28;20036;-78
2021/09/12 00:46:06;;;;;;;4.35;2.70;;;;;;;5.87;61.60;99648.44;5037965;28;20056;-78
2021/09/12 00:48:34;;;;;;;5.57;2.25;;;;;;;5.93;61.37;99647.25;5022791;28;20072;-78
2021/09/12 00:51:00;;;;;;;3.88;2.70;;;;;;;5.95;61.61;99651.56;5056255;28;20044;-78
2021/09/12 00:53:26;;;;;;;2.50;2.30;;;;;;;5.96;61.54;99641.78;5025534;28;20048;-77
2021/09/12 00:55:52;;;;;;;3.45;2.58;;;;;;;6.00;61.38;99651.28;5059052;28;20129;-78
2021/09/12 00:58:18;;;;;;;3.88;2.65;;;;;;;6.01;61.63;99655.66;5075572;28;20056;-78
2021/09/12 01:00:44;;;;;;;3.20;2.33;;;;;;;6.01;61.53;99648.53;5041846;28;20061;-79
2021/09/12 01:03:10;;;;;;;3.10;2.50;;;;;;;5.97;61.37;99641.69;5058122;28;20045;-78
2021/09/12 01:05:37;;;;;;;3.13;2.40;;;;;;;5.92;61.48;99634.91;5024987;28;20051;-78
2021/09/12 01:08:04;;;;;;;3.40;2.80;;;;;;;6.02;61.39;99642.31;5041825;28;20048;-78
2021/09/12 01:10:30;;;;;;;5.38;2.63;;;;;;;6.06;61.38;99654.47;5025599;28;20520;-77
2021/09/12 01:12:56;;;;;;;3.65;2.55;;;;;;;6.10;61.34;99656.94;5025174;28;20052;-79
2021/09/12 01:15:22;;;;;;;4.07;2.60;;;;;;;6.13;61.41;99654.09;5074877;28;20082;-77
2021/09/12 01:17:48;;;;;;;3.63;2.35;;;;;;;6.09;61.28;99650.75;5057942;28;20123;-78
2021/09/12 01:20:14;;;;;;;3.30;2.47;;;;;;;6.03;61.47;99643.16;5009145;28;20047;-78
2021/09/12 01:22:40;;;;;;;2.78;2.45;;;;;;;6.02;61.42;99646.75;5058207;28;20505;-78
2021/09/12 01:25:06;;;;;;;6.00;2.50;;;;;;;5.92;61.30;99632.25;5074979;28;20098;-77
2021/09/12 01:27:32;;;;;;;8.85;2.88;;;;;;;5.78;61.75;99643.63;5024955;28;20470;-80
2021/09/12 01:30:00;;;;;;;2.67;2.45;;;;;;;5.72;62.04;99652.81;5025730;28;20041;-78
2021/09/12 01:32:26;;;;;;;3.08;2.75;;;;;;;5.67;62.22;99646.88;5058752;28;20396;-80
2021/09/12 01:34:52;;;;;;;3.10;2.80;;;;;;;5.55;62.95;99644.91;5041434;28;20071;-80
2021/09/12 01:37:17;;;;;;;3.28;2.97;;;;;;;5.52;62.72;99648.56;5058189;28;20044;-78
2021/09/12 01:39:43;;;;;;;2.90;2.60;;;;;;;5.41;62.76;99642.13;5041414;28;20533;-78
2021/09/12 01:42:09;;;;;;;4.57;2.60;;;;;;;5.34;63.15;99633.66;5057690;28;20045;-78
2021/09/12 01:44:35;;;;;;;3.90;3.00;;;;;;;5.39;63.49;99652.84;5040848;28;20075;-77
2021/09/12 01:47:01;;;;;;;2.85;2.65;;;;;;;5.40;63.35;99649.25;5057810;28;20376;-77
2021/09/12 01:49:27;;;;;;;3.72;2.65;;;;;;;5.41;63.34;99645.63;5024830;28;20037;-78
2021/09/12 01:51:53;;;;;;;5.20;2.55;;;;;;;5.34;63.69;99644.25;5040977;28;20518;-78
2021/09/12 01:54:19;;;;;;;5.85;2.97;;;;;;;5.31;63.90;99665.66;5041133;28;20044;-77
2021/09/12 01:56:45;;;;;;;5.28;3.15;;;;;;;5.24;63.92;99648.38;5040499;28;20055;-78
2021/09/12 01:59:11;;;;;;;3.55;3.10;;;;;;;5.30;64.07;99666.56;5073697;28;20080;-78
2021/09/12 02:01:37;;;;;;;3.33;2.60;;;;;;;5.23;64.14;99658.09;5041109;28;20090;-78
2021/09/12 02:04:03;;;;;;;2.70;2.50;;;;;;;5.20;64.33;99660.91;5057272;28;20062;-77
2021/09/12 02:06:29;;;;;;;2.92;2.47;;;;;;;5.26;64.00;99665.03;5040662;28;20492;-77
2021/09/12 02:08:55;;;;;;;4.88;2.80;;;;;;;5.24;64.43;99659.81;5040404;28;20051;-77
2021/09/12 02:11:21;;;;;;;5.05;2.85;;;;;;;5.32;64.03;99662.06;5024135;28;20047;-78
2021/09/12 02:13:47;;;;;;;5.15;2.65;;;;;;;5.35;64.20;99661.91;5040539;28;20041;-77
2021/09/12 02:16:13;;;;;;;4.28;2.97;;;;;;;5.41;64.25;99663.34;5057226;28;20052;-77
2021/09/12 02:18:39;;;;;;;2.63;2.42;;;;;;;5.40;63.90;99648.38;5040390;28;20513;-77
2021/09/12 02:21:05;;;;;;;3.10;2.70;;;;;;;5.49;64.23;99654.06;5040448;28;20131;-77
2021/09/12 02:23:31;;;;;;;6.32;2.75;;;;;;;5.51;64.07;99662.78;5040661;28;20039;-77
2021/09/12 02:25:57;;;;;;;4.97;2.70;;;;;;;5.46;63.66;99648.06;5023798;28;20036;-77
2021/09/12 02:28:23;;;;;;;3.40;2.65;;;;;;;5.57;63.76;99662.44;5057018;28;20132;-78
2021/09/12 02:30:49;;;;;;;3.15;2.72;;;;;;;5.56;63.67;99659.88;5056785;28;20048;-77
2021/09/12 02:33:15;;;;;;;5.75;2.50;;;;;;;5.50;63.91;99653.13;5073515;28;20040;-78
2021/09/12 02:35:41;;;;;;;3.47;3.10;;;;;;;5.70;63.72;99669.72;5039991;28;20059;-78
2021/09/12 02:38:07;;;;;;;4.22;2.67;;;;;;;5.79;63.51;99674.53;5056703;28;20052;-78
2021/09/12 02:40:33;;;;;;;3.95;2.53;;;;;;;5.80;63.10;99658.53;5023471;28;20036;-77
2021/09/12 02:42:59;;;;;;;9.48;3.08;;;;;;;5.96;62.96;99673.63;5056958;28;20047;-79
2021/09/12 02:45:25;;;;;;;4.28;2.67;;;;;;;6.06;62.77;99680.16;5039764;28;20040;-81
2021/09/12 02:47:51;;;;;;;2.55;2.22;;;;;;;6.10;62.73;99675.53;5040069;28;20041;-79
2021/09/12 02:50:17;;;;;;;3.13;2.80;;;;;;;6.18;62.40;99673.28;5056598;28;20042;-80
2021/09/12 02:52:43;;;;;;;3.97;2.50;;;;;;;6.31;62.06;99674.28;5023218;28;20090;-78
2021/09/12 02:55:10;;;;;;;5.43;2.55;;;;;;;6.33;62.02;99673.25;5039379;28;20094;-78
2021/09/12 02:57:36;;;;;;;4.80;3.00;;;;;;;6.18;62.04;99654.72;5039853;28;20059;-79
2021/09/12 03:00:02;;;;;;;4.20;2.70;;;;;;;6.23;62.53;99671.22;5055993;28;20139;-79
2021/09/12 03:02:29;;;;;;;4.82;2.70;;;;;;;6.33;62.13;99677.72;5039663;28;20044;-79
2021/09/12 03:04:55;;;;;;;4.07;2.90;;;;;;;6.44;61.89;99683.28;5072907;28;20044;-78
2021/09/12 03:07:22;;;;;;;7.00;2.80;;;;;;;6.45;61.76;99692.94;5056232;28;20047;-86
2021/09/12 03:09:48;;;;;;;2.72;2.50;;;;;;;6.46;61.69;99684.03;5039312;28;20052;-79
2021/09/12 03:12:14;;;;;;;8.38;2.72;;;;;;;6.50;61.56;99671.41;5023509;28;20170;-79
2021/09/12 03:14:39;;;;;;;4.38;2.80;;;;;;;6.66;61.58;99680.22;5055399;28;20451;-79
2021/09/12 03:17:05;;;;;;;4.07;2.15;;;;;;;6.70;61.36;99672.94;5072292;28;20044;-77
2021/09/12 03:19:31;;;;;;;5.22;2.80;;;;;;;6.80;61.18;99690.03;5072446;28;20491;-77
2021/09/12 03:21:57;;;;;;;7.15;2.92;;;;;;;6.89;60.83;99676.22;5040903;28;20036;-78
2021/09/12 03:24:23;;;;;;;4.85;2.70;;;;;;;7.00;60.91;99684.41;5022601;28;20553;-78
2021/09/12 03:26:49;;;;;;;8.10;2.78;;;;;;;6.99;60.51;99655.25;5039232;28;20430;-79
2021/09/12 03:29:15;;;;;;;3.88;3.40;;;;;;;7.13;60.03;99665.03;5055758;28;20377;-78
2021/09/12 03:31:41;;;;;;;3.85;3.08;;;;;;;7.29;59.89;99668.47;5039672;28;20173;-81
2021/09/12 03:34:07;;;;;;;2.85;2.58;;;;;;;7.40;59.65;99666.00;5055587;28;20045;-78
2021/09/12 03:36:32;;;;;;;3.58;2.70;;;;;;;7.30;59.41;99655.09;5039156;28;20040;-80
2021/09/12 03:38:59;;;;;;;3.40;3.00;;;;;;;7.44;59.49;99666.66;5086579;28;20045;-78
2021/09/12 03:41:25;;;;;;;8.30;3.40;;;;;;;7.64;59.18;99676.09;5055877;28;20063;-79
2021/09/12 03:43:51;;;;;;;5.35;3.22;;;;;;;7.70;59.14;99673.03;5051667;28;20043;-79
2021/09/12 03:46:17;;;;;;;5.75;4.03;;;;;;;7.84;59.07;99674.84;5042217;28;20044;-78
2021/09/12 03:48:43;;;;;;;4.40;3.22;;;;;;;7.91;58.74;99671.69;5058766;28;20058;-79
2021/09/12 03:51:09;;;;;;;5.15;3.55;;;;;;;8.01;58.15;99656.84;5050369;28;20086;-78
2021/09/12 03:53:34;;;;;;;7.15;3.17;;;;;;;8.10;58.01;99674.00;5055200;28;20135;-78
2021/09/12 03:56:00;;;;;;;7.32;4.15;;;;;;;8.28;57.84;99658.66;5038558;28;20094;-82
2021/09/12 03:58:27;;;;;;;5.32;3.35;;;;;;;8.42;57.59;99660.44;5055194;28;20044;-78
2021/09/12 04:00:53;;;;;;;4.60;3.40;;;;;;;8.55;56.98;99663.16;5072006;28;20043;-79
2021/09/12 04:03:19;;;;;;;4.50;3.70;;;;;;;8.58;57.11;99665.63;5038566;28;20703;-78
2021/09/12 04:05:45;;;;;;;4.95;3.70;;;;;;;8.63;57.22;99667.00;5054670;28;20079;-78
2021/09/12 04:08:11;;;;;;;6.57;3.60;;;;;;;8.68;56.78;99664.88;5038407;28;20097;-78
2021/09/12 04:10:37;;;;;;;5.07;3.70;;;;;;;8.65;56.71;99666.88;5055137;28;20055;-77
2021/09/12 04:13:03;;;;;;;6.75;4.18;;;;;;;8.81;56.66;99667.59;5005997;28;20488;-79
2021/09/12 04:15:29;;;;;;;5.82;3.83;;;;;;;8.84;56.62;99672.72;5056001;28;20066;-77
2021/09/12 04:17:55;;;;;;;7.88;3.88;;;;;;;8.84;56.36;99661.16;5055409;28;20044;-79
2021/09/12 04:20:21;;;;;;;5.95;4.05;;;;;;;8.91;56.51;99671.34;5071368;28;20048;-78
2021/09/12 04:22:46;;;;;;;8.23;4.30;;;;;;;8.94;56.41;99671.09;5038218;28;20498;-78
2021/09/12 04:25:12;;;;;;;7.38;4.05;;;;;;;8.99;56.58;99673.50;5054737;28;20052;-77
2021/09/12 04:27:38;;;;;;;5.03;4.03;;;;;;;9.15;56.41;99670.63;5021356;28;20036;-77
2021/09/12 04:30:05;;;;;;;7.82;4.38;;;;;;;9.23;56.05;99674.44;5038394;28;20106;-79
2021/09/12 04:32:31;;;;;;;5.40;4.60;;;;;;;9.26;56.08;99646.72;5054912;28;20044;-77
2021/09/12 04:34:57;;;;;;;9.70;5.20;;;;;;;9.44;56.31;99645.44;5038031;28;20051;-78
2021/09/12 04:37:23;;;;;;;8.43;4.90;;;;;;;9.71;55.94;99663.13;5038088;28;20415;-78
2021/09/12 04:39:49;;;;;;;9.38;4.75;;;;;;;9.86;55.27;99656.69;5037316;28;20127;-78
2021/09/12 04:42:15;;;;;;;10.88;5.43;;;;;;;9.93;55.35;99627.72;5053695;28;20447;-78
2021/09/12 04:44:41;;;;;;;13.60;5.10;;;;;;;10.08;54.78;99639.06;5053377;28;20086;-78
2021/09/12 04:47:06;;;;;;;6.75;4.45;;;;;;;10.23;55.00;99629.97;5037298;28;20135;-77
2021/09/12 04:49:33;;;;;;;9.02;4.25;;;;;;;10.59;54.47;99650.44;5037566;28;20134;-78
2021/09/12 04:51:59;;;;;;;9.30;4.35;;;;;;;10.86;54.17;99647.47;5002572;28;20037;-79
2021/09/12 04:54:24;;;;;;;7.13;4.13;;;;;;;10.94;53.53;99645.09;5052048;28;20538;-80
2021/09/12 04:56:50;;;;;;;6.20;4.15;;;;;;;10.92;53.57;99641.66;5052375;28;20388;-78
2021/09/12 04:59:16;;;;;;;10.98;4.35;;;;;;;11.20;53.50;99658.25;5035619;28;20143;-78
2021/09/12 05:01:42;;;;;;;6.80;4.53;;;;;;;11.39;53.07;99661.19;5052328;28;20093;-79
2021/09/12 05:04:08;;;;;;;6.15;4.47;;;;;;;11.47;52.75;99652.59;5052248;28;20048;-79
2021/09/12 05:06:34;;;;;;;8.95;4.40;;;;;;;11.69;52.33;99657.06;5036806;28;20125;-79
2021/09/12 05:08:59;;;;;;;10.98;5.50;;;;;;;11.70;52.38;99663.28;5054786;28;20049;-78
2021/09/12 05:11:25;;;;;;;6.03;4.40;;;;;;;11.86;52.39;99653.94;5038111;28;20040;-79
2021/09/12 05:13:51;;;;;;;8.70;4.75;;;;;;;11.99;51.87;99642.22;5037708;28;20052;-79
2021/09/12 05:16:17;;;;;;;8.70;5.20;;;;;;;12.08;51.61;99658.41;5071018;28;20040;-78
2021/09/12 05:18:43;;;;;;;12.25;5.47;;;;;;;12.25;51.51;99665.06;5037836;28;20055;-79
2021/09/12 05:21:09;;;;;;;10.43;4.25;;;;;;;12.26;51.21;99655.19;5037807;28;20533;-78
2021/09/12 05:23:35;;;;;;;10.70;4.00;;;;;;;12.46;51.19;99658.94;5054748;28;20040;-78
2021/09/12 05:26:01;;;;;;;5.65;3.55;;;;;;;12.58;50.93;99653.41;5054279;28;20130;-77
2021/09/12 05:28:27;;;;;;;6.15;4.10;;;;;;;12.66;50.77;99644.72;5037923;28;20123;-79
2021/09/12 05:30:53;;;;;;;4.63;3.60;;;;;;;12.86;50.64;99643.91;5021058;28;20131;-80
2021/09/12 05:33:19;;;;;;;6.82;4.00;;;;;;;13.05;50.46;99653.91;5054083;28;20478;-79
2021/09/12 05:35:45;;;;;;;6.55;3.38;;;;;;;13.12;50.21;99643.47;5053858;28;20102;-78
2021/09/12 05:38:11;;;;;;;5.07;2.97;;;;;;;13.24;49.60;99647.84;5056547;28;20161;-79
2021/09/12 05:40:36;;;;;;;6.65;2.83;;;;;;;13.43;49.31;99644.41;5074274;28;20411;-78
2021/09/12 05:43:02;;;;;;;7.63;4.95;;;;;;;13.66;49.01;99641.56;5057400;28;20080;-78
2021/09/12 05:45:28;;;;;;;7.55;4.75;;;;;;;13.77;48.47;99634.25;5057573;28;20085;-78
2021/09/12 05:47:54;;;;;;;6.50;4.45;;;;;;;13.75;48.71;99622.78;5057470;28;20484;-78
2021/09/12 05:50:20;;;;;;;9.60;5.18;;;;;;;13.95;48.78;99636.25;5040833;28;20032;-78
2021/09/12 05:52:46;;;;;;;7.05;4.53;;;;;;;14.07;48.42;99625.28;5041005;28;20348;-79
2021/09/12 05:55:12;;;;;;;8.25;4.57;;;;;;;14.19;48.61;99636.75;5057375;28;20063;-78
2021/09/12 05:57:39;;;;;;;10.43;4.72;;;;;;;14.36;47.90;99632.53;5057514;28;20085;-78
2021/09/12 06:00:06;;;;;;;8.93;5.85;;;;;;;14.46;47.60;99630.69;5056548;28;20554;-79
2021/09/12 06:02:32;;;;;;;16.17;7.30;;;;;;;14.45;47.63;99626.31;5057531;28;20051;-79
2021/09/12 06:05:02;;;;;;;13.10;7.30;;;;;;;14.70;47.56;99642.91;5057341;28;20411;-78
2021/09/12 06:07:29;;;;;;;11.65;6.80;;;;;;;15.03;47.73;99636.22;5041797;28;20036;-78
2021/09/12 06:09:55;;;;;;;7.97;4.78;;;;;;;15.20;46.47;99638.19;5074042;28;20478;-78
2021/09/12 06:12:20;;;;;;;6.32;4.22;;;;;;;15.32;46.22;99632.66;5040620;28;20044;-78
2021/09/12 06:14:46;;;;;;;6.20;3.35;;;;;;;15.36;45.93;99623.28;5040509;28;20062;-78
2021/09/12 06:17:13;;;;;;;4.85;2.75;;;;;;;15.48;45.75;99632.88;5040200;28;20080;-77
2021/09/12 06:19:43;;;;;;;3.85;3.08;;;;;;;15.59;45.47;99640.75;5025637;28;20048;-79
2021/09/12 06:22:09;;;;;;;3.03;2.40;;;;;;;15.50;44.57;99625.50;5056865;28;20098;-78
2021/09/12 06:24:35;;;;;;;5.43;2.40;;;;;;;15.53;44.83;99646.72;5073653;28;20044;-77
2021/09/12 06:27:01;;;;;;;6.28;2.63;;;;;;;15.22;44.84;99632.66;5056628;28;20048;-77
2021/09/12 06:29:27;;;;;;;4.82;2.50;;;;;;;15.15;45.65;99635.06;5040185;28;20051;-78
2021/09/12 06:31:53;;;;;;;3.88;2.60;;;;;;;15.13;45.40;99620.91;5040126;28;20048;-78
2021/09/12 06:34:19;;;;;;;7.68;2.60;;;;;;;15.39;45.27;99636.44;5040214;28;20263;-78
2021/09/12 06:36:45;;;;;;;5.65;2.47;;;;;;;15.53;44.76;99631.44;5056918;28;20044;-78
2021/09/12 06:39:11;;;;;;;4.82;2.65;;;;;;;15.57;44.70;99632.00;5056503;28;20131;-78
2021/09/12 06:41:36;;;;;;;5.35;2.35;;;;;;;15.48;44.54;99624.78;5057037;28;20078;-79
2021/09/12 06:44:03;;;;;;;4.30;2.40;;;;;;;15.68;44.74;99629.16;5023860;28;20040;-78
2021/09/12 06:46:29;;;;;;;4.55;2.45;;;;;;;15.76;44.38;99621.16;5072724;28;20037;-78
2021/09/12 06:48:55;;;;;;;14.45;2.75;;;;;;;15.69;44.38;99614.66;5038690;28;20048;-78
2021/09/12 06:51:21;;;;;;;5.07;2.60;;;;;;;15.59;44.58;99632.69;5023197;28;20132;-77
2021/09/12 06:53:47;;;;;;;3.63;2.47;;;;;;;15.45;44.66;99628.59;5039610;28;20079;-78
2021/09/12 06:56:13;;;;;;;2.75;2.55;;;;;;;15.41;44.45;99620.97;5056180;28;20142;-78
2021/09/12 06:58:39;;;;;;;3.53;1.95;;;;;;;15.28;43.55;99638.31;5072684;28;20173;-78
2021/09/12 07:01:05;;;;;;;1.67;1.58;;;;;;;14.73;42.09;99621.94;5023060;28;20514;-79
2021/09/12 07:03:31;;;;;;;3.25;1.23;;;;;;;14.71;41.24;99634.72;5039406;28;20483;-77
2021/09/12 07:05:57;;;;;;;1.45;1.23;;;;;;;14.73;41.62;99626.50;5055970;28;20040;-78
2021/09/12 07:08:23;;;;;;;1.17;1.15;;;;;;;14.84;41.05;99628.19;5055921;28;20083;-78
2021/09/12 07:10:48;;;;;;;1.38;1.10;;;;;;;14.63;41.27;99631.00;5039338;28;20151;-78
2021/09/12 07:13:14;;;;;;;1.27;1.17;;;;;;;15.05;41.71;99623.50;5039210;28;20529;-78
2021/09/12 07:15:40;;;;;;;1.33;1.23;;;;;;;15.06;40.06;99614.41;5072612;28;20517;-79
2021/09/12 07:18:06;;;;;;;1.38;1.27;;;;;;;15.28;39.73;99630.22;5055997;28;20036;-78
2021/09/12 07:20:33;;;;;;;1.02;1.00;;;;;;;15.29;39.51;99613.06;5055630;28;20480;-77
2021/09/12 07:23:02;;;;;;;2.85;1.00;;;;;;;15.13;38.89;99634.38;5040119;28;20052;-78
2021/09/12 07:25:28;;;;;;;1.20;1.10;;;;;;;15.25;39.59;99617.06;5055528;28;20181;-78
2021/09/12 07:27:54;;;;;;;4.80;1.10;;;;;;;15.10;38.70;99607.75;5022334;28;20498;-79
2021/09/12 07:30:20;;;;;;;1.25;1.17;;;;;;;15.19;38.78;99611.41;5039014;28;20044;-78
2021/09/12 07:32:46;;;;;;;1.40;1.30;;;;;;;15.03;39.36;99601.22;5072057;28;20401;-78
2021/09/12 07:35:12;;;;;;;1.40;1.30;;;;;;;15.06;39.45;99617.09;5055776;28;20044;-79
2021/09/12 07:37:39;;;;;;;1.30;1.20;;;;;;;15.01;39.36;99608.63;5055566;28;20041;-78
2021/09/12 07:40:06;;;;;;;1.40;1.30;;;;;;;14.92;39.56;99587.94;5072155;28;20058;-78
2021/09/12 07:42:31;;;;;;;3.03;1.15;;;;;;;15.04;39.42;99605.63;5071817;28;20515;-79
2021/09/12 07:44:57;;;;;;;3.03;1.10;;;;;;;15.44;38.49;99593.75;5054952;28;20135;-78
2021/09/12 07:47:23;;;;;;;5.22;1.33;;;;;;;15.51;38.55;99579.53;5055726;28;20041;-78
2021/09/12 07:49:49;;;;;;;1.52;1.13;;;;;;;15.63;37.26;99588.28;5055976;28;20076;-78
2021/09/12 07:52:15;;;;;;;2.65;0.80;;;;;;;15.55;38.27;99596.25;5038966;28;20098;-77
2021/09/12 07:54:41;;;;;;;1.10;1.00;;;;;;;15.79;37.76;99588.50;5072874;28;20574;-78
2021/09/12 07:57:07;;;;;;;1.85;1.40;;;;;;;16.00;37.76;99584.69;5057760;28;20051;-77
2021/09/12 07:59:32;;;;;;;1.52;1.42;;;;;;;16.02;37.55;99572.78;5057006;28;20117;-77
2021/09/12 08:01:58;;;;;;;1.30;1.20;;;;;;;16.03;36.37;99581.72;5024040;28;20044;-77
2021/09/12 08:04:24;;;;;;;0.93;0.90;;;;;;;15.79;36.69;99584.94;5040302;28;20094;-79
2021/09/12 08:06:52;;;;;;;1.55;1.27;;;;;;;15.91;36.95;99574.81;5040608;28;20047;-78
2021/09/12 08:09:18;;;;;;;1.15;1.15;;;;;;;16.32;37.07;99575.25;5073201;28;20040;-79
2021/09/12 08:11:44;;;;;;;1.90;1.20;;;;;;;16.19;35.84;99584.56;5056444;28;20075;-78
2021/09/12 08:14:11;;;;;;;1.20;1.10;;;;;;;16.20;34.70;99563.84;5055836;28;20044;-79
2021/09/12 08:16:37;;;;;;;2.85;1.08;;;;;;;16.17;35.00;99586.59;5055188;28;20044;-78
2021/09/12 08:19:02;;;;;;;1.30;1.20;;;;;;;16.02;35.73;99582.69;5071548;28;20094;-78
2021/09/12 08:21:28;;;;;;;1.30;1.20;;;;;;;15.92;36.20;99576.53;5055130;28;20040;-78
2021/09/12 08:23:55;;;;;;;1.15;1.10;;;;;;;16.24;35.12;99560.66;5022276;28;20051;-78
2021/09/12 08:26:21;;;;;;;1.13;1.10;;;;;;;16.43;34.89;99548.03;5054978;28;20041;-78
2021/09/12 08:28:47;;;;;;;1.38;1.30;;;;;;;16.45;34.40;99573.03;5055271;28;20044;-78
2021/09/12 08:31:13;;;;;;;1.52;1.23;;;;;;;16.34;34.08;99565.16;5055049;28;20048;-78
2021/09/12 08:33:39;;;;;;;1.40;1.23;;;;;;;16.45;34.62;99573.88;5071267;28;20056;-78
2021/09/12 08:36:05;;;;;;;1.27;1.17;;;;;;;16.72;35.30;99562.13;5038112;28;20041;-78
2021/09/12 08:38:31;;;;;;;1.73;1.63;;;;;;;16.96;34.66;99572.31;5055506;28;20086;-79
2021/09/12 08:40:58;;;;;;;2.67;1.50;;;;;;;16.90;33.93;99561.28;5038158;28;20547;-79
2021/09/12 08:43:24;;;;;;;3.13;1.48;;;;;;;17.15;34.04;99571.25;5021336;28;20083;-79
2021/09/12 08:45:50;;;;;;;1.83;1.67;;;;;;;17.32;34.14;99566.75;5054926;28;20131;-78
2021/09/12 08:48:17;;;;;;;1.50;1.40;;;;;;;17.44;34.05;99559.22;5054594;28;20522;-78
2021/09/12 08:50:43;;;;;;;1.42;1.33;;;;;;;17.67;33.79;99554.91;5054570;28;20044;-78
2021/09/12 08:53:09;;;;;;;1.50;1.40;;;;;;;17.37;34.02;99559.00;5054453;28;20190;-78
2021/09/12 08:55:35;;;;;;;1.65;1.55;;;;;;;17.49;34.19;99556.91;5071149;28;20499;-79
2021/09/12 08:58:02;;;;;;;1.48;1.35;;;;;;;17.34;34.49;99558.50;5071311;28;20540;-78
2021/09/12 09:00:29;;;;;;;2.50;1.60;;;;;;;17.96;34.46;99545.59;5037958;28;20048;-79
2021/09/12 09:03:04;;;;;;;2.08;1.88;;;;;;;18.83;33.13;99554.16;5037836;28;20547;-78
2021/09/12 09:05:35;;;;;;;5.47;1.75;;;;;;;19.33;32.64;99551.19;5038111;28;20045;-79
2021/09/12 09:08:14;;;;;;;2.42;1.40;;;;;;;19.24;32.73;99554.09;5021010;28;20075;-78
2021/09/12 09:10:44;;;;;;;5.07;1.25;;;;;;;19.54;32.76;99556.03;5054711;28;20052;-79
2021/09/12 09:13:34;;;;;;;4.57;1.30;;;;;;;19.60;31.65;99555.34;5023955;28;20139;-78
2021/09/12 09:16:01;;;;;;;1.40;1.30;;;;;;;19.48;32.37;99543.16;5074444;28;20080;-78
2021/09/12 09:18:35;;;;;;;1.52;1.27;;;;;;;19.97;31.47;99542.13;5025076;28;20200;-79
2021/09/12 09:21:02;;;;;;;1.40;1.13;;;;;;;19.99;31.44;99537.38;5041918;28;20158;-79
2021/09/12 09:23:27;;;;;;;1.50;1.20;;;;;;;19.46;31.46;99547.09;5041880;28;20484;-78
2021/09/12 09:25:54;;;;;;;1.30;1.20;;;;;;;19.09;32.56;99552.09;5025134;28;20040;-78
2021/09/12 09:28:20;;;;;;;1.77;1.10;;;;;;;18.54;33.29;99560.91;5074564;28;20094;-77
2021/09/12 09:30:54;;;;;;;1.40;1.30;;;;;;;17.76;34.71;99557.72;5041209;28;20055;-77
2021/09/12 09:33:22;;;;;;;1.52;1.20;;;;;;;17.22;35.55;99544.41;5074904;28;20048;-78
2021/09/12 09:35:56;;;;;;;2.60;1.20;;;;;;;17.66;35.71;99538.88;5075091;28;20128;-78
2021/09/12 09:38:24;;;;;;;1.55;1.45;;;;;;;18.04;35.13;99544.78;5074502;28;20540;-78
2021/09/12 09:40:56;;;;;;;2.17;1.50;;;;;;;18.25;34.57;99544.31;5041375;28;20044;-77
2021/09/12 09:43:23;;;;;;;1.30;1.23;;;;;;;18.80;34.10;99543.66;5057811;28;20169;-79
2021/09/12 09:45:49;;;;;;;1.45;1.23;;;;;;;19.35;33.33;99540.16;5058169;28;20472;-78
2021/09/12 09:48:15;;;;;;;1.73;1.60;;;;;;;19.85;32.32;99538.97;5041290;28;20384;-77
2021/09/12 09:50:42;;;;;;;1.10;1.10;;;;;;;19.93;31.58;99555.19;5057411;28;20045;-79
2021/09/12 09:53:10;;;;;;;4.00;1.20;;;;;;;19.93;31.38;99543.50;5024451;28;20051;-78
2021/09/12 09:55:36;;;;;;;1.60;1.17;;;;;;;20.29;30.69;99535.66;5075230;28;20586;-77
2021/09/12 09:58:05;;;;;;;1.52;1.38;;;;;;;20.36;30.64;99544.75;5024482;28;20135;-79
2021/09/12 10:00:32;;;;;;;1.60;1.20;;;;;;;20.37;30.55;99532.88;5074201;28;20083;-80
2021/09/12 10:02:58;;;;;;;1.60;1.00;;;;;;;20.86;29.48;99529.75;5057655;28;20082;-77
2021/09/12 10:05:24;;;;;;;1.25;1.23;;;;;;;21.14;29.67;99535.44;5040901;28;20048;-78
2021/09/12 10:07:50;;;;;;;1.65;1.10;;;;;;;21.16;29.42;99540.69;5073926;28;20538;-78
2021/09/12 10:10:17;;;;;;;1.30;1.20;;;;;;;21.27;28.90;99529.34;5073941;28;20040;-80
2021/09/12 10:12:54;;;;;;;1.95;1.35;;;;;;;21.06;29.29;99525.50;5023934;28;20044;-79
2021/09/12 10:15:37;;;;;;;1.90;1.50;;;;;;;20.76;29.66;99526.47;5058072;28;20051;-78
2021/09/12 10:18:03;;;;;;;3.03;1.35;;;;;;;20.45;29.73;99511.06;5074303;28;20441;-78
2021/09/12 10:20:30;;;;;;;3.08;1.52;;;;;;;21.49;29.37;99519.44;5024025;28;20044;-78
2021/09/12 10:22:57;;;;;;;1.30;1.20;;;;;;;21.94;28.10;99517.47;5040059;28;20494;-77
2021/09/12 10:25:24;;;;;;;4.07;1.40;;;;;;;21.28;28.85;99529.16;5023647;28;20414;-79
2021/09/12 10:27:57;;;;;;;3.13;1.17;;;;;;;21.19;29.06;99530.28;5073468;28;20040;-79
2021/09/12 10:30:33;;;;;;;1.83;1.00;;;;;;;21.63;28.04;99510.41;5073807;28;20048;-79
2021/09/12 10:33:06;;;;;;;1.58;1.20;;;;;;;20.57;29.60;99509.66;5058462;28;20071;-78
2021/09/12 10:36:04;;;;;;;1.65;1.50;;;;;;;20.29;30.04;99516.66;5056683;28;20044;-78
2021/09/12 10:38:35;;;;;;;2.17;1.30;;;;;;;21.07;29.53;99493.72;5055245;28;20109;-78
2021/09/12 10:41:01;;;;;;;2.00;1.20;;;;;;;21.23;28.90;99525.31;5057081;28;20041;-77
2021/09/12 10:43:27;;;;;;;0.90;0.90;;;;;;;20.98;29.15;99520.13;5073189;28;20047;-77
2021/09/12 10:45:56;;;;;;;2.75;1.13;;;;;;;20.92;29.43;99501.88;5056810;28;20048;-80
2021/09/12 10:48:22;;;;;;;1.77;1.10;;;;;;;21.83;28.99;99499.78;5073415;28;20129;-78
2021/09/12 10:50:49;;;;;;;1.67;1.17;;;;;;;21.02;28.71;99498.84;5056686;28;20040;-79
2021/09/12 10:53:15;;;;;;;1.80;1.10;;;;;;;20.82;29.50;99501.28;5056545;28;20506;-79
2021/09/12 10:56:00;;;;;;;1.88;1.17;;;;;;;21.70;28.61;99510.47;5056327;28;20045;-78
2021/09/12 10:58:30;;;;;;;4.78;1.10;;;;;;;22.22;28.13;99495.81;5055950;28;20073;-78
2021/09/12 11:00:57;;;;;;;1.42;0.90;;;;;;;23.07;26.92;99491.31;5056833;28;20435;-79
2021/09/12 11:03:23;;;;;;;2.15;1.05;;;;;;;23.37;26.58;99490.03;5056460;28;20071;-78
2021/09/12 11:05:50;;;;;;;1.05;1.05;;;;;;;24.07;25.98;99481.69;5073062;28;20052;-78
2021/09/12 11:08:16;;;;;;;3.08;1.20;;;;;;;24.88;25.34;99471.47;5056302;28;20178;-78
2021/09/12 11:10:47;;;;;;;2.25;0.90;;;;;;;25.55;24.88;99479.53;5022882;28;20127;-78
2021/09/12 11:13:21;;;;;;;1.90;1.20;;;;;;;26.27;23.68;99472.84;5039958;28;20124;-78
2021/09/12 11:15:47;;;;;;;4.93;1.10;;;;;;;27.06;22.93;99478.72;5039517;28;20049;-78
2021/09/12 11:18:13;;;;;;;3.80;1.00;;;;;;;26.81;22.40;99467.78;5072843;28;20052;-79
2021/09/12 11:20:43;;;;;;;1.60;1.25;;;;;;;25.86;23.34;99476.88;5055841;28;20105;-79
2021/09/12 11:23:10;;;;;;;1.40;1.30;;;;;;;25.91;23.78;99479.81;5039573;28;20571;-78
2021/09/12 11:25:36;;;;;;;1.27;1.17;;;;;;;24.85;24.16;99474.63;5039047;28;20063;-78
2021/09/12 11:28:07;;;;;;;1.60;1.30;;;;;;;23.74;25.61;99468.81;5055913;28;20198;-78
2021/09/12 11:30:33;;;;;;;2.40;1.80;;;;;;;24.06;26.13;99447.25;5039305;28;20058;-78
2021/09/12 11:33:01;;;;;;;3.90;1.60;;;;;;;25.34;24.94;99459.59;5055858;28;20058;-78
2021/09/12 11:35:27;;;;;;;1.63;1.30;;;;;;;26.12;23.52;99464.09;5055788;28;20063;-78